McKees Rocks, PA (15136)

9:18 PM EDT on September 26, 2016 (GMT -0400)
Ben Avon | | Change Station

Elev 869 ft 40.51 °N, 80.08 °W | Updated 3 minutes ago

Mostly Cloudy
Mostly Cloudy
63.7 °F
Feels Like 63.7 °F
N
0.3
Wind Variable Wind from SW
Gusts 1.7 mph

Today
High -- | Low -- °F
--% Chance of Precip.
Yesterday
High -- | Low -- °F
Precip. -- in
Pressure 30.01 in
Visibility 10.0 miles
Clouds Few 1400 ft
Scattered Clouds 3300 ft
Mostly Cloudy 25000 ft
Dew Point 58 °F
Humidity 81%
Rainfall 0.03 in
Snow Depth Not available.
7:12 AM 7:09 PM
Waning Crescent, 15% visible
METAR KPIT 270051Z 25004KT 10SM FEW014 SCT033 BKN250 17/16 A3000 RMK AO2 SLP163 T01670156
Pressure 30.01 in
Visibility 10.0 miles
Clouds Few 1400 ft
Scattered Clouds 3300 ft
Mostly Cloudy 25000 ft
Dew Point 58 °F
Humidity 81%
Rainfall 0.03 in
Snow Depth Not available.
7:12 AM 7:09 PM
Waning Crescent, 15% visible
METAR KPIT 270051Z 25004KT 10SM FEW014 SCT033 BKN250 17/16 A3000 RMK AO2 SLP163 T01670156

10-Day Weather Forecast

Almanac

Astronomy

Sep. 26, 2016 Rise Set
Actual Time
Civil Twilight
Nautical Twilight
Astronomical Twilight
Moon
Length of Visible Light
Length of Day
Tomorrow will be .
, % of the Moon is Illuminated

Today's Extremes

State Highs State Lows

Community

WunderPhotos

Upload Photos

1,942,001 photos uploaded!

WunderBlog® & News

Nearby

Air Quality

  Air Quality AQ Index Pollutant
Not available.

Snow Depth

Station Depth Elevation

Earthquake Activity

City Distance Mag. Time & Date
Minimum magnitude displayed is 2.5.

Coastal Water Temperatures

Place Temperature

Stations

Nearby Weather Stations

Station Location Temp. Windchill Dew Point Humidity Wind Precip. Elev Updated Type
                   

Watches & Warnings

There are currently no watches in effect.